sensor_id;sensor_type;location;lat;lon;timestamp;P1;durP1;ratioP1;P2;durP2;ratioP2
16828;SDS011;8531;48.078;11.968;2023-01-28T00:01:50;20.20;;;12.90;;
16828;SDS011;8531;48.078;11.968;2023-01-28T00:04:15;22.03;;;13.20;;
16828;SDS011;8531;48.078;11.968;2023-01-28T00:06:42;19.57;;;12.90;;
16828;SDS011;8531;48.078;11.968;2023-01-28T00:09:08;19.53;;;13.07;;
16828;SDS011;8531;48.078;11.968;2023-01-28T00:11:34;20.63;;;13.30;;
16828;SDS011;8531;48.078;11.968;2023-01-28T00:14:00;19.97;;;13.40;;
16828;SDS011;8531;48.078;11.968;2023-01-28T00:16:26;18.33;;;12.67;;
16828;SDS011;8531;48.078;11.968;2023-01-28T00:18:52;18.67;;;12.40;;
16828;SDS011;8531;48.078;11.968;2023-01-28T00:21:18;19.17;;;12.67;;
16828;SDS011;8531;48.078;11.968;2023-01-28T00:23:47;21.20;;;12.63;;
16828;SDS011;8531;48.078;11.968;2023-01-28T00:26:16;21.40;;;13.13;;
16828;SDS011;8531;48.078;11.968;2023-01-28T00:28:42;20.60;;;14.03;;
16828;SDS011;8531;48.078;11.968;2023-01-28T00:31:15;19.97;;;12.43;;
16828;SDS011;8531;48.078;11.968;2023-01-28T00:33:46;21.20;;;13.63;;
16828;SDS011;8531;48.078;11.968;2023-01-28T00:36:13;19.33;;;13.00;;
16828;SDS011;8531;48.078;11.968;2023-01-28T00:38:39;21.07;;;13.50;;
16828;SDS011;8531;48.078;11.968;2023-01-28T00:41:13;21.30;;;13.23;;
16828;SDS011;8531;48.078;11.968;2023-01-28T00:43:41;18.33;;;11.97;;
16828;SDS011;8531;48.078;11.968;2023-01-28T00:46:08;20.63;;;13.57;;
16828;SDS011;8531;48.078;11.968;2023-01-28T00:48:35;22.57;;;13.37;;
16828;SDS011;8531;48.078;11.968;2023-01-28T00:51:01;20.43;;;13.27;;
16828;SDS011;8531;48.078;11.968;2023-01-28T00:53:27;22.63;;;14.40;;
16828;SDS011;8531;48.078;11.968;2023-01-28T00:55:53;19.93;;;13.07;;
16828;SDS011;8531;48.078;11.968;2023-01-28T00:58:19;19.50;;;13.07;;
16828;SDS011;8531;48.078;11.968;2023-01-28T01:00:45;22.13;;;12.97;;
16828;SDS011;8531;48.078;11.968;2023-01-28T01:03:11;24.13;;;13.93;;
16828;SDS011;8531;48.078;11.968;2023-01-28T01:05:37;19.63;;;13.23;;
16828;SDS011;8531;48.078;11.968;2023-01-28T01:08:02;22.93;;;13.90;;
16828;SDS011;8531;48.078;11.968;2023-01-28T01:10:28;20.07;;;13.33;;
16828;SDS011;8531;48.078;11.968;2023-01-28T01:12:54;20.93;;;13.83;;
16828;SDS011;8531;48.078;11.968;2023-01-28T01:15:22;20.27;;;13.00;;
16828;SDS011;8531;48.078;11.968;2023-01-28T01:17:48;22.47;;;13.93;;
16828;SDS011;8531;48.078;11.968;2023-01-28T01:20:17;23.87;;;13.90;;
16828;SDS011;8531;48.078;11.968;2023-01-28T01:22:45;22.37;;;13.93;;
16828;SDS011;8531;48.078;11.968;2023-01-28T01:25:12;22.47;;;14.03;;
16828;SDS011;8531;48.078;11.968;2023-01-28T01:27:39;23.03;;;12.87;;
16828;SDS011;8531;48.078;11.968;2023-01-28T01:30:05;20.97;;;13.43;;
16828;SDS011;8531;48.078;11.968;2023-01-28T01:32:32;20.63;;;13.53;;
16828;SDS011;8531;48.078;11.968;2023-01-28T01:35:01;22.13;;;14.17;;
16828;SDS011;8531;48.078;11.968;2023-01-28T01:37:29;21.80;;;14.17;;
16828;SDS011;8531;48.078;11.968;2023-01-28T01:39:55;20.60;;;13.10;;
16828;SDS011;8531;48.078;11.968;2023-01-28T01:42:21;21.77;;;14.23;;
16828;SDS011;8531;48.078;11.968;2023-01-28T01:44:59;21.70;;;13.53;;
16828;SDS011;8531;48.078;11.968;2023-01-28T01:53:02;22.27;;;13.43;;
16828;SDS011;8531;48.078;11.968;2023-01-28T01:55:38;20.53;;;12.77;;
16828;SDS011;8531;48.078;11.968;2023-01-28T01:58:07;21.37;;;12.57;;
16828;SDS011;8531;48.078;11.968;2023-01-28T02:00:36;20.53;;;13.00;;
16828;SDS011;8531;48.078;11.968;2023-01-28T02:03:04;20.43;;;13.80;;
16828;SDS011;8531;48.078;11.968;2023-01-28T02:05:30;19.30;;;12.13;;
16828;SDS011;8531;48.078;11.968;2023-01-28T02:07:57;18.43;;;12.20;;
16828;SDS011;8531;48.078;11.968;2023-01-28T02:10:43;18.73;;;11.97;;
16828;SDS011;8531;48.078;11.968;2023-01-28T02:13:11;19.60;;;12.17;;
16828;SDS011;8531;48.078;11.968;2023-01-28T02:15:37;19.50;;;12.23;;
16828;SDS011;8531;48.078;11.968;2023-01-28T02:18:03;21.00;;;13.60;;
16828;SDS011;8531;48.078;11.968;2023-01-28T02:34:12;18.53;;;12.13;;
16828;SDS011;8531;48.078;11.968;2023-01-28T02:39:58;19.33;;;12.33;;
16828;SDS011;8531;48.078;11.968;2023-01-28T02:42:28;18.43;;;12.10;;
16828;SDS011;8531;48.078;11.968;2023-01-28T02:44:56;19.07;;;11.30;;
16828;SDS011;8531;48.078;11.968;2023-01-28T02:47:22;20.13;;;12.20;;
16828;SDS011;8531;48.078;11.968;2023-01-28T02:50:16;21.07;;;13.13;;
16828;SDS011;8531;48.078;11.968;2023-01-28T02:59:02;18.43;;;11.20;;
16828;SDS011;8531;48.078;11.968;2023-01-28T03:01:56;20.03;;;12.63;;
16828;SDS011;8531;48.078;11.968;2023-01-28T03:04:48;19.50;;;12.80;;
16828;SDS011;8531;48.078;11.968;2023-01-28T03:07:26;19.73;;;12.27;;
16828;SDS011;8531;48.078;11.968;2023-01-28T03:09:55;17.73;;;12.30;;
16828;SDS011;8531;48.078;11.968;2023-01-28T03:12:26;19.97;;;12.50;;
16828;SDS011;8531;48.078;11.968;2023-01-28T03:15:19;23.70;;;14.63;;
16828;SDS011;8531;48.078;11.968;2023-01-28T03:18:16;22.37;;;12.60;;
16828;SDS011;8531;48.078;11.968;2023-01-28T03:21:07;20.57;;;12.47;;
16828;SDS011;8531;48.078;11.968;2023-01-28T03:23:57;20.23;;;13.87;;
16828;SDS011;8531;48.078;11.968;2023-01-28T03:26:55;20.23;;;12.83;;
16828;SDS011;8531;48.078;11.968;2023-01-28T03:29:47;19.63;;;12.50;;
16828;SDS011;8531;48.078;11.968;2023-01-28T03:32:34;19.07;;;12.33;;
16828;SDS011;8531;48.078;11.968;2023-01-28T03:35:21;21.63;;;13.20;;
16828;SDS011;8531;48.078;11.968;2023-01-28T03:38:07;20.43;;;12.53;;
16828;SDS011;8531;48.078;11.968;2023-01-28T03:40:50;19.40;;;12.77;;
16828;SDS011;8531;48.078;11.968;2023-01-28T03:43:19;18.90;;;13.40;;
16828;SDS011;8531;48.078;11.968;2023-01-28T03:45:45;17.20;;;11.73;;
16828;SDS011;8531;48.078;11.968;2023-01-28T03:48:15;22.53;;;13.23;;
16828;SDS011;8531;48.078;11.968;2023-01-28T03:50:44;20.03;;;12.43;;
16828;SDS011;8531;48.078;11.968;2023-01-28T03:53:12;20.20;;;12.77;;
16828;SDS011;8531;48.078;11.968;2023-01-28T03:55:39;20.43;;;13.37;;
16828;SDS011;8531;48.078;11.968;2023-01-28T03:58:05;23.03;;;12.40;;
16828;SDS011;8531;48.078;11.968;2023-01-28T04:00:31;20.27;;;12.63;;
16828;SDS011;8531;48.078;11.968;2023-01-28T04:02:57;18.67;;;12.67;;
16828;SDS011;8531;48.078;11.968;2023-01-28T04:05:23;23.10;;;13.07;;
16828;SDS011;8531;48.078;11.968;2023-01-28T04:07:53;20.33;;;13.13;;
16828;SDS011;8531;48.078;11.968;2023-01-28T04:10:19;18.60;;;13.10;;
16828;SDS011;8531;48.078;11.968;2023-01-28T04:12:45;19.60;;;12.80;;
16828;SDS011;8531;48.078;11.968;2023-01-28T04:15:11;19.50;;;12.87;;
16828;SDS011;8531;48.078;11.968;2023-01-28T04:17:42;19.60;;;12.37;;
16828;SDS011;8531;48.078;11.968;2023-01-28T04:20:09;19.00;;;12.03;;
16828;SDS011;8531;48.078;11.968;2023-01-28T04:22:36;19.20;;;12.97;;
16828;SDS011;8531;48.078;11.968;2023-01-28T04:25:02;22.03;;;13.40;;
16828;SDS011;8531;48.078;11.968;2023-01-28T04:27:28;19.60;;;13.37;;
16828;SDS011;8531;48.078;11.968;2023-01-28T04:29:54;20.93;;;12.77;;
16828;SDS011;8531;48.078;11.968;2023-01-28T04:32:20;21.10;;;13.07;;
16828;SDS011;8531;48.078;11.968;2023-01-28T04:34:45;21.37;;;13.40;;
16828;SDS011;8531;48.078;11.968;2023-01-28T04:37:11;20.17;;;12.40;;
16828;SDS011;8531;48.078;11.968;2023-01-28T04:39:37;19.13;;;12.57;;
16828;SDS011;8531;48.078;11.968;2023-01-28T04:42:02;19.03;;;12.17;;
16828;SDS011;8531;48.078;11.968;2023-01-28T04:44:28;21.20;;;13.27;;
16828;SDS011;8531;48.078;11.968;2023-01-28T04:46:54;20.83;;;12.57;;
16828;SDS011;8531;48.078;11.968;2023-01-28T04:49:19;22.50;;;13.43;;
16828;SDS011;8531;48.078;11.968;2023-01-28T04:51:45;19.17;;;12.03;;
16828;SDS011;8531;48.078;11.968;2023-01-28T04:54:11;22.37;;;13.13;;
16828;SDS011;8531;48.078;11.968;2023-01-28T04:56:36;21.90;;;13.50;;
16828;SDS011;8531;48.078;11.968;2023-01-28T04:59:02;21.13;;;13.20;;
16828;SDS011;8531;48.078;11.968;2023-01-28T05:01:28;19.50;;;12.33;;
16828;SDS011;8531;48.078;11.968;2023-01-28T05:03:54;19.07;;;12.50;;
16828;SDS011;8531;48.078;11.968;2023-01-28T05:06:20;21.03;;;12.87;;
16828;SDS011;8531;48.078;11.968;2023-01-28T05:08:45;20.00;;;12.63;;
16828;SDS011;8531;48.078;11.968;2023-01-28T05:11:11;21.37;;;12.93;;
16828;SDS011;8531;48.078;11.968;2023-01-28T05:13:37;21.03;;;13.37;;
16828;SDS011;8531;48.078;11.968;2023-01-28T05:16:04;19.70;;;13.07;;
16828;SDS011;8531;48.078;11.968;2023-01-28T05:18:30;19.73;;;12.53;;
16828;SDS011;8531;48.078;11.968;2023-01-28T05:20:55;20.63;;;12.80;;
16828;SDS011;8531;48.078;11.968;2023-01-28T05:23:21;18.50;;;12.23;;
16828;SDS011;8531;48.078;11.968;2023-01-28T05:25:47;22.50;;;13.67;;
16828;SDS011;8531;48.078;11.968;2023-01-28T05:28:13;20.20;;;12.57;;
16828;SDS011;8531;48.078;11.968;2023-01-28T05:30:39;19.70;;;12.37;;
16828;SDS011;8531;48.078;11.968;2023-01-28T05:33:05;20.57;;;12.97;;
16828;SDS011;8531;48.078;11.968;2023-01-28T05:35:30;17.23;;;11.07;;
16828;SDS011;8531;48.078;11.968;2023-01-28T05:37:56;19.30;;;13.00;;
16828;SDS011;8531;48.078;11.968;2023-01-28T05:40:22;21.00;;;12.80;;
16828;SDS011;8531;48.078;11.968;2023-01-28T05:42:47;21.43;;;13.67;;
16828;SDS011;8531;48.078;11.968;2023-01-28T05:45:13;19.43;;;13.00;;
16828;SDS011;8531;48.078;11.968;2023-01-28T05:47:39;22.97;;;12.60;;
16828;SDS011;8531;48.078;11.968;2023-01-28T05:50:05;21.30;;;13.30;;
16828;SDS011;8531;48.078;11.968;2023-01-28T05:52:32;20.50;;;13.63;;
16828;SDS011;8531;48.078;11.968;2023-01-28T05:54:57;22.27;;;12.87;;
16828;SDS011;8531;48.078;11.968;2023-01-28T05:57:23;22.00;;;13.57;;
16828;SDS011;8531;48.078;11.968;2023-01-28T05:59:49;25.07;;;14.20;;
16828;SDS011;8531;48.078;11.968;2023-01-28T06:02:14;24.57;;;14.90;;
16828;SDS011;8531;48.078;11.968;2023-01-28T06:04:40;22.20;;;13.90;;
16828;SDS011;8531;48.078;11.968;2023-01-28T06:07:06;20.27;;;13.10;;
16828;SDS011;8531;48.078;11.968;2023-01-28T06:09:31;20.03;;;13.10;;
16828;SDS011;8531;48.078;11.968;2023-01-28T06:11:57;16.97;;;11.63;;
16828;SDS011;8531;48.078;11.968;2023-01-28T06:14:23;21.13;;;13.60;;
16828;SDS011;8531;48.078;11.968;2023-01-28T06:16:48;20.37;;;13.67;;
16828;SDS011;8531;48.078;11.968;2023-01-28T06:19:16;18.47;;;12.77;;
16828;SDS011;8531;48.078;11.968;2023-01-28T06:21:41;21.47;;;12.37;;
16828;SDS011;8531;48.078;11.968;2023-01-28T06:24:07;18.90;;;12.57;;
16828;SDS011;8531;48.078;11.968;2023-01-28T06:26:33;18.00;;;12.50;;
16828;SDS011;8531;48.078;11.968;2023-01-28T06:28:59;24.90;;;13.77;;
16828;SDS011;8531;48.078;11.968;2023-01-28T06:31:25;20.17;;;13.90;;
16828;SDS011;8531;48.078;11.968;2023-01-28T06:33:50;21.07;;;13.90;;
16828;SDS011;8531;48.078;11.968;2023-01-28T06:36:16;19.00;;;12.57;;
16828;SDS011;8531;48.078;11.968;2023-01-28T06:38:42;22.93;;;14.27;;
16828;SDS011;8531;48.078;11.968;2023-01-28T06:41:07;18.30;;;12.07;;
16828;SDS011;8531;48.078;11.968;2023-01-28T06:43:33;21.53;;;13.87;;
16828;SDS011;8531;48.078;11.968;2023-01-28T06:45:59;20.90;;;13.10;;
16828;SDS011;8531;48.078;11.968;2023-01-28T06:48:25;20.87;;;13.33;;
16828;SDS011;8531;48.078;11.968;2023-01-28T06:50:51;21.07;;;13.33;;
16828;SDS011;8531;48.078;11.968;2023-01-28T06:53:17;18.13;;;12.90;;
16828;SDS011;8531;48.078;11.968;2023-01-28T06:55:43;19.80;;;12.30;;
16828;SDS011;8531;48.078;11.968;2023-01-28T06:58:09;22.43;;;13.23;;
16828;SDS011;8531;48.078;11.968;2023-01-28T07:00:35;22.63;;;13.43;;
16828;SDS011;8531;48.078;11.968;2023-01-28T07:03:01;16.33;;;12.23;;
16828;SDS011;8531;48.078;11.968;2023-01-28T07:05:27;20.30;;;12.60;;
16828;SDS011;8531;48.078;11.968;2023-01-28T07:07:53;21.97;;;13.87;;
16828;SDS011;8531;48.078;11.968;2023-01-28T07:10:19;19.73;;;13.07;;
16828;SDS011;8531;48.078;11.968;2023-01-28T07:12:44;20.53;;;13.10;;
16828;SDS011;8531;48.078;11.968;2023-01-28T07:15:10;20.07;;;12.80;;
16828;SDS011;8531;48.078;11.968;2023-01-28T07:17:42;20.80;;;14.27;;
16828;SDS011;8531;48.078;11.968;2023-01-28T07:20:09;18.17;;;13.13;;
16828;SDS011;8531;48.078;11.968;2023-01-28T07:22:37;23.03;;;12.77;;
16828;SDS011;8531;48.078;11.968;2023-01-28T07:25:05;18.07;;;12.03;;
16828;SDS011;8531;48.078;11.968;2023-01-28T07:27:32;23.33;;;13.27;;
16828;SDS011;8531;48.078;11.968;2023-01-28T07:29:57;19.77;;;12.53;;
16828;SDS011;8531;48.078;11.968;2023-01-28T07:32:23;22.03;;;13.63;;
16828;SDS011;8531;48.078;11.968;2023-01-28T07:34:51;20.17;;;12.73;;
16828;SDS011;8531;48.078;11.968;2023-01-28T07:37:17;16.70;;;12.27;;
16828;SDS011;8531;48.078;11.968;2023-01-28T07:39:43;14.73;;;10.77;;
16828;SDS011;8531;48.078;11.968;2023-01-28T07:42:08;18.17;;;11.37;;
16828;SDS011;8531;48.078;11.968;2023-01-28T07:44:34;19.67;;;12.53;;
16828;SDS011;8531;48.078;11.968;2023-01-28T07:47:01;19.37;;;12.77;;
16828;SDS011;8531;48.078;11.968;2023-01-28T07:49:29;18.90;;;12.63;;
16828;SDS011;8531;48.078;11.968;2023-01-28T07:51:55;25.03;;;13.70;;
16828;SDS011;8531;48.078;11.968;2023-01-28T07:54:21;17.93;;;11.33;;
16828;SDS011;8531;48.078;11.968;2023-01-28T07:56:46;21.80;;;13.97;;
16828;SDS011;8531;48.078;11.968;2023-01-28T07:59:12;19.90;;;12.13;;
16828;SDS011;8531;48.078;11.968;2023-01-28T08:01:38;19.27;;;13.13;;
16828;SDS011;8531;48.078;11.968;2023-01-28T08:04:04;20.83;;;13.20;;
16828;SDS011;8531;48.078;11.968;2023-01-28T08:06:29;19.50;;;12.73;;
16828;SDS011;8531;48.078;11.968;2023-01-28T08:08:55;20.30;;;13.43;;
16828;SDS011;8531;48.078;11.968;2023-01-28T08:11:21;19.37;;;12.53;;
16828;SDS011;8531;48.078;11.968;2023-01-28T08:13:47;18.63;;;13.33;;
16828;SDS011;8531;48.078;11.968;2023-01-28T08:16:13;18.30;;;12.07;;
16828;SDS011;8531;48.078;11.968;2023-01-28T08:18:39;19.77;;;13.20;;
16828;SDS011;8531;48.078;11.968;2023-01-28T08:21:05;19.57;;;12.03;;
16828;SDS011;8531;48.078;11.968;2023-01-28T08:23:31;19.47;;;12.43;;
16828;SDS011;8531;48.078;11.968;2023-01-28T08:25:58;20.23;;;12.80;;
16828;SDS011;8531;48.078;11.968;2023-01-28T08:28:24;18.50;;;12.00;;
16828;SDS011;8531;48.078;11.968;2023-01-28T08:30:51;17.67;;;11.90;;
16828;SDS011;8531;48.078;11.968;2023-01-28T08:33:17;18.30;;;11.73;;
16828;SDS011;8531;48.078;11.968;2023-01-28T08:35:43;19.13;;;12.00;;
16828;SDS011;8531;48.078;11.968;2023-01-28T08:38:10;22.30;;;12.23;;
16828;SDS011;8531;48.078;11.968;2023-01-28T08:40:37;17.97;;;12.13;;
16828;SDS011;8531;48.078;11.968;2023-01-28T08:43:03;17.33;;;11.53;;
16828;SDS011;8531;48.078;11.968;2023-01-28T08:45:29;17.73;;;12.37;;
16828;SDS011;8531;48.078;11.968;2023-01-28T08:50:23;18.30;;;12.57;;
16828;SDS011;8531;48.078;11.968;2023-01-28T08:52:58;15.87;;;10.90;;
16828;SDS011;8531;48.078;11.968;2023-01-28T08:55:25;17.53;;;11.43;;
16828;SDS011;8531;48.078;11.968;2023-01-28T08:57:52;19.33;;;11.73;;
16828;SDS011;8531;48.078;11.968;2023-01-28T09:00:19;18.40;;;11.93;;
16828;SDS011;8531;48.078;11.968;2023-01-28T09:02:45;16.47;;;11.10;;
16828;SDS011;8531;48.078;11.968;2023-01-28T09:05:11;17.80;;;12.20;;
16828;SDS011;8531;48.078;11.968;2023-01-28T09:07:37;25.90;;;13.17;;
16828;SDS011;8531;48.078;11.968;2023-01-28T09:10:03;17.00;;;11.77;;
16828;SDS011;8531;48.078;11.968;2023-01-28T09:12:30;17.20;;;11.80;;
16828;SDS011;8531;48.078;11.968;2023-01-28T09:14:56;18.17;;;12.20;;
16828;SDS011;8531;48.078;11.968;2023-01-28T09:17:22;20.57;;;12.77;;
16828;SDS011;8531;48.078;11.968;2023-01-28T09:19:48;17.03;;;11.40;;
16828;SDS011;8531;48.078;11.968;2023-01-28T09:22:14;17.53;;;11.00;;
16828;SDS011;8531;48.078;11.968;2023-01-28T09:24:40;18.13;;;11.80;;
16828;SDS011;8531;48.078;11.968;2023-01-28T09:27:06;17.20;;;11.80;;
16828;SDS011;8531;48.078;11.968;2023-01-28T09:29:34;16.23;;;11.73;;
16828;SDS011;8531;48.078;11.968;2023-01-28T09:32:01;16.83;;;11.87;;
16828;SDS011;8531;48.078;11.968;2023-01-28T09:34:27;19.87;;;12.23;;
16828;SDS011;8531;48.078;11.968;2023-01-28T09:36:52;17.40;;;11.57;;
16828;SDS011;8531;48.078;11.968;2023-01-28T09:39:18;17.33;;;11.40;;
16828;SDS011;8531;48.078;11.968;2023-01-28T09:41:50;17.17;;;12.07;;
16828;SDS011;8531;48.078;11.968;2023-01-28T09:44:51;15.43;;;10.67;;
16828;SDS011;8531;48.078;11.968;2023-01-28T09:47:27;13.90;;;10.00;;
16828;SDS011;8531;48.078;11.968;2023-01-28T09:50:04;16.80;;;11.17;;
16828;SDS011;8531;48.078;11.968;2023-01-28T09:52:36;16.80;;;11.83;;
16828;SDS011;8531;48.078;11.968;2023-01-28T09:55:11;17.90;;;10.60;;
16828;SDS011;8531;48.078;11.968;2023-01-28T09:57:46;16.00;;;10.60;;
16828;SDS011;8531;48.078;11.968;2023-01-28T10:00:21;17.20;;;11.20;;
16828;SDS011;8531;48.078;11.968;2023-01-28T10:13:56;15.93;;;10.33;;
16828;SDS011;8531;48.078;11.968;2023-01-28T10:16:34;13.43;;;9.27;;
16828;SDS011;8531;48.078;11.968;2023-01-28T10:19:15;15.07;;;10.30;;
16828;SDS011;8531;48.078;11.968;2023-01-28T10:21:58;13.13;;;9.03;;
16828;SDS011;8531;48.078;11.968;2023-01-28T10:26:59;16.43;;;10.40;;
16828;SDS011;8531;48.078;11.968;2023-01-28T10:29:28;13.87;;;9.60;;
16828;SDS011;8531;48.078;11.968;2023-01-28T10:32:15;14.17;;;9.87;;
16828;SDS011;8531;48.078;11.968;2023-01-28T10:34:47;10.87;;;7.87;;
16828;SDS011;8531;48.078;11.968;2023-01-28T10:37:13;14.40;;;10.00;;
16828;SDS011;8531;48.078;11.968;2023-01-28T10:39:40;12.67;;;8.40;;
16828;SDS011;8531;48.078;11.968;2023-01-28T10:42:15;14.73;;;9.70;;
16828;SDS011;8531;48.078;11.968;2023-01-28T10:45:36;12.80;;;9.00;;
16828;SDS011;8531;48.078;11.968;2023-01-28T10:48:00;11.83;;;8.00;;
16828;SDS011;8531;48.078;11.968;2023-01-28T10:50:37;12.20;;;8.40;;
16828;SDS011;8531;48.078;11.968;2023-01-28T10:53:13;12.23;;;8.90;;
16828;SDS011;8531;48.078;11.968;2023-01-28T10:55:54;13.00;;;8.90;;
16828;SDS011;8531;48.078;11.968;2023-01-28T10:58:23;12.40;;;8.97;;
16828;SDS011;8531;48.078;11.968;2023-01-28T11:00:55;14.53;;;9.60;;
16828;SDS011;8531;48.078;11.968;2023-01-28T11:03:24;13.23;;;9.03;;
16828;SDS011;8531;48.078;11.968;2023-01-28T11:05:55;11.90;;;8.13;;
16828;SDS011;8531;48.078;11.968;2023-01-28T11:08:22;14.07;;;9.00;;
16828;SDS011;8531;48.078;11.968;2023-01-28T11:10:50;14.37;;;10.03;;
16828;SDS011;8531;48.078;11.968;2023-01-28T11:13:18;11.07;;;8.33;;
16828;SDS011;8531;48.078;11.968;2023-01-28T11:15:49;12.23;;;8.77;;
16828;SDS011;8531;48.078;11.968;2023-01-28T11:18:26;11.83;;;8.27;;
16828;SDS011;8531;48.078;11.968;2023-01-28T11:21:03;12.70;;;8.10;;
16828;SDS011;8531;48.078;11.968;2023-01-28T11:23:32;9.30;;;7.10;;
16828;SDS011;8531;48.078;11.968;2023-01-28T11:26:13;13.87;;;8.73;;
16828;SDS011;8531;48.078;11.968;2023-01-28T11:28:41;13.63;;;9.53;;
16828;SDS011;8531;48.078;11.968;2023-01-28T11:31:08;12.03;;;8.07;;
16828;SDS011;8531;48.078;11.968;2023-01-28T11:33:41;9.77;;;7.10;;
16828;SDS011;8531;48.078;11.968;2023-01-28T11:36:15;13.20;;;8.50;;
16828;SDS011;8531;48.078;11.968;2023-01-28T11:38:49;9.80;;;7.63;;
16828;SDS011;8531;48.078;11.968;2023-01-28T11:41:29;10.70;;;8.10;;
16828;SDS011;8531;48.078;11.968;2023-01-28T11:52:24;12.63;;;8.57;;
16828;SDS011;8531;48.078;11.968;2023-01-28T11:55:03;12.30;;;8.67;;
16828;SDS011;8531;48.078;11.968;2023-01-28T11:57:54;13.67;;;9.00;;
16828;SDS011;8531;48.078;11.968;2023-01-28T12:00:31;12.10;;;8.13;;
16828;SDS011;8531;48.078;11.968;2023-01-28T12:03:26;10.23;;;7.67;;
16828;SDS011;8531;48.078;11.968;2023-01-28T12:06:16;11.60;;;8.00;;
16828;SDS011;8531;48.078;11.968;2023-01-28T12:12:09;10.37;;;8.07;;
16828;SDS011;8531;48.078;11.968;2023-01-28T12:17:52;12.97;;;8.23;;
16828;SDS011;8531;48.078;11.968;2023-01-28T12:26:40;12.93;;;9.03;;
16828;SDS011;8531;48.078;11.968;2023-01-28T12:29:23;11.93;;;8.73;;
16828;SDS011;8531;48.078;11.968;2023-01-28T12:32:21;11.70;;;8.47;;
16828;SDS011;8531;48.078;11.968;2023-01-28T12:45:57;15.10;;;10.13;;
16828;SDS011;8531;48.078;11.968;2023-01-28T12:48:35;12.27;;;9.10;;
16828;SDS011;8531;48.078;11.968;2023-01-28T12:53:44;14.00;;;10.20;;
16828;SDS011;8531;48.078;11.968;2023-01-28T12:56:15;15.80;;;11.10;;
16828;SDS011;8531;48.078;11.968;2023-01-28T12:58:57;14.67;;;9.90;;
16828;SDS011;8531;48.078;11.968;2023-01-28T13:01:29;11.43;;;9.00;;
16828;SDS011;8531;48.078;11.968;2023-01-28T13:04:09;12.40;;;9.27;;
16828;SDS011;8531;48.078;11.968;2023-01-28T13:06:48;15.13;;;10.63;;
16828;SDS011;8531;48.078;11.968;2023-01-28T13:09:25;13.13;;;9.53;;
16828;SDS011;8531;48.078;11.968;2023-01-28T13:11:53;12.10;;;9.30;;
16828;SDS011;8531;48.078;11.968;2023-01-28T13:14:24;12.60;;;9.60;;
16828;SDS011;8531;48.078;11.968;2023-01-28T13:16:53;13.37;;;9.63;;
16828;SDS011;8531;48.078;11.968;2023-01-28T13:21:46;14.53;;;10.00;;
16828;SDS011;8531;48.078;11.968;2023-01-28T13:29:06;14.33;;;10.13;;
16828;SDS011;8531;48.078;11.968;2023-01-28T13:31:39;13.27;;;9.80;;
16828;SDS011;8531;48.078;11.968;2023-01-28T13:34:07;13.63;;;9.93;;
16828;SDS011;8531;48.078;11.968;2023-01-28T13:36:49;15.40;;;10.90;;
16828;SDS011;8531;48.078;11.968;2023-01-28T13:39:18;14.03;;;10.67;;
16828;SDS011;8531;48.078;11.968;2023-01-28T13:41:50;15.57;;;11.17;;
16828;SDS011;8531;48.078;11.968;2023-01-28T13:44:31;16.50;;;11.30;;
16828;SDS011;8531;48.078;11.968;2023-01-28T13:47:10;13.50;;;9.70;;
16828;SDS011;8531;48.078;11.968;2023-01-28T13:49:43;14.27;;;10.03;;
16828;SDS011;8531;48.078;11.968;2023-01-28T14:20:24;16.57;;;10.13;;
16828;SDS011;8531;48.078;11.968;2023-01-28T14:23:05;15.13;;;10.20;;
16828;SDS011;8531;48.078;11.968;2023-01-28T14:28:38;14.20;;;9.70;;
16828;SDS011;8531;48.078;11.968;2023-01-28T14:31:12;13.47;;;9.50;;
16828;SDS011;8531;48.078;11.968;2023-01-28T14:33:48;17.03;;;9.53;;
16828;SDS011;8531;48.078;11.968;2023-01-28T14:36:14;12.63;;;8.73;;
16828;SDS011;8531;48.078;11.968;2023-01-28T14:38:41;14.63;;;8.83;;
16828;SDS011;8531;48.078;11.968;2023-01-28T14:41:08;11.33;;;7.80;;
16828;SDS011;8531;48.078;11.968;2023-01-28T14:43:42;13.13;;;8.07;;
16828;SDS011;8531;48.078;11.968;2023-01-28T14:54:29;16.70;;;8.87;;
16828;SDS011;8531;48.078;11.968;2023-01-28T14:59:47;13.87;;;8.77;;
16828;SDS011;8531;48.078;11.968;2023-01-28T15:02:19;17.90;;;10.40;;
16828;SDS011;8531;48.078;11.968;2023-01-28T15:04:48;14.50;;;9.20;;
16828;SDS011;8531;48.078;11.968;2023-01-28T15:07:15;23.67;;;10.20;;
16828;SDS011;8531;48.078;11.968;2023-01-28T15:09:46;13.80;;;8.83;;
16828;SDS011;8531;48.078;11.968;2023-01-28T15:12:12;15.63;;;8.47;;
16828;SDS011;8531;48.078;11.968;2023-01-28T15:14:41;14.50;;;8.73;;
16828;SDS011;8531;48.078;11.968;2023-01-28T15:17:13;12.23;;;7.97;;
16828;SDS011;8531;48.078;11.968;2023-01-28T15:19:54;18.83;;;8.30;;
16828;SDS011;8531;48.078;11.968;2023-01-28T15:22:25;14.07;;;8.43;;
16828;SDS011;8531;48.078;11.968;2023-01-28T15:24:52;56.77;;;14.80;;
16828;SDS011;8531;48.078;11.968;2023-01-28T15:27:22;14.83;;;7.70;;
16828;SDS011;8531;48.078;11.968;2023-01-28T15:29:53;15.23;;;8.70;;
16828;SDS011;8531;48.078;11.968;2023-01-28T15:32:27;18.57;;;10.30;;
16828;SDS011;8531;48.078;11.968;2023-01-28T15:34:55;12.80;;;8.57;;
16828;SDS011;8531;48.078;11.968;2023-01-28T15:37:23;15.33;;;8.77;;
16828;SDS011;8531;48.078;11.968;2023-01-28T15:39:58;13.23;;;9.37;;
16828;SDS011;8531;48.078;11.968;2023-01-28T15:42:30;16.10;;;8.63;;
16828;SDS011;8531;48.078;11.968;2023-01-28T15:44:56;16.37;;;9.30;;
16828;SDS011;8531;48.078;11.968;2023-01-28T15:47:28;16.10;;;10.93;;
16828;SDS011;8531;48.078;11.968;2023-01-28T15:49:58;15.07;;;9.23;;
16828;SDS011;8531;48.078;11.968;2023-01-28T15:52:34;13.53;;;8.47;;
16828;SDS011;8531;48.078;11.968;2023-01-28T15:55:02;15.30;;;9.33;;
16828;SDS011;8531;48.078;11.968;2023-01-28T15:57:29;13.83;;;9.57;;
16828;SDS011;8531;48.078;11.968;2023-01-28T16:02:30;15.17;;;9.53;;
16828;SDS011;8531;48.078;11.968;2023-01-28T16:05:00;13.80;;;8.07;;
16828;SDS011;8531;48.078;11.968;2023-01-28T16:07:32;15.67;;;9.57;;
16828;SDS011;8531;48.078;11.968;2023-01-28T16:10:15;11.63;;;8.03;;
16828;SDS011;8531;48.078;11.968;2023-01-28T16:12:52;14.23;;;9.57;;
16828;SDS011;8531;48.078;11.968;2023-01-28T16:15:22;16.70;;;8.90;;
16828;SDS011;8531;48.078;11.968;2023-01-28T16:17:49;14.43;;;9.63;;
16828;SDS011;8531;48.078;11.968;2023-01-28T16:22:59;13.97;;;9.33;;
16828;SDS011;8531;48.078;11.968;2023-01-28T16:25:36;13.87;;;9.20;;
16828;SDS011;8531;48.078;11.968;2023-01-28T16:28:02;16.90;;;11.37;;
16828;SDS011;8531;48.078;11.968;2023-01-28T16:30:36;19.03;;;12.03;;
16828;SDS011;8531;48.078;11.968;2023-01-28T16:33:02;21.87;;;14.03;;
16828;SDS011;8531;48.078;11.968;2023-01-28T16:35:28;25.67;;;14.20;;
16828;SDS011;8531;48.078;11.968;2023-01-28T16:37:54;28.27;;;15.50;;
16828;SDS011;8531;48.078;11.968;2023-01-28T16:40:23;22.80;;;14.17;;
16828;SDS011;8531;48.078;11.968;2023-01-28T16:42:49;26.07;;;15.73;;
16828;SDS011;8531;48.078;11.968;2023-01-28T16:45:20;21.07;;;12.77;;
16828;SDS011;8531;48.078;11.968;2023-01-28T16:47:50;15.87;;;10.30;;
16828;SDS011;8531;48.078;11.968;2023-01-28T16:50:16;15.63;;;10.53;;
16828;SDS011;8531;48.078;11.968;2023-01-28T16:52:45;14.53;;;10.10;;
16828;SDS011;8531;48.078;11.968;2023-01-28T16:55:14;12.90;;;9.50;;
16828;SDS011;8531;48.078;11.968;2023-01-28T16:57:43;14.83;;;9.70;;